Time;durP1;ratioP1;P1;durP2;ratioP2;P2;SDS_P1;SDS_P2;PMS_P1;PMS_P2;Temp;Humidity;BMP_temperature;BMP_pressure;BME280_temperature;BME280_humidity;BME280_pressure;Samples;Min_cycle;Max_cycle;Signal;HPM_P1;HPM_P2
2023/07/11 00:01:21;;;;;;;0.70;0.60;;;21.30;80.40;;;;;;5052719;28;20640;-63
2023/07/11 00:03:46;;;;;;;0.00;0.00;;;21.30;80.50;;;;;;5052496;28;20660;-63
2023/07/11 00:06:17;;;;;;;0.00;0.00;;;21.30;80.20;;;;;;5052686;28;20637;-63
2023/07/11 00:08:42;;;;;;;0.00;0.00;;;21.30;80.20;;;;;;5053167;28;20181;-63
2023/07/11 00:11:10;;;;;;;0.00;0.00;;;21.20;79.90;;;;;;5053411;28;20174;-63
2023/07/11 00:13:37;;;;;;;0.00;0.00;;;21.20;79.80;;;;;;5053354;28;20177;-64
2023/07/11 00:16:10;;;;;;;0.00;0.00;;;21.20;80.00;;;;;;5053063;28;20189;-64
2023/07/11 00:18:35;;;;;;;0.00;0.00;;;21.10;80.70;;;;;;5046866;28;20174;-64
2023/07/11 00:21:04;;;;;;;0.00;0.00;;;21.10;80.20;;;;;;5052970;28;20192;-64
2023/07/11 00:23:30;;;;;;;0.05;0.05;;;21.10;80.40;;;;;;5052611;28;20239;-64
2023/07/11 00:25:56;;;;;;;0.00;0.00;;;21.00;80.80;;;;;;5052762;28;20193;-64
2023/07/11 00:28:22;;;;;;;0.00;0.00;;;21.00;81.40;;;;;;5052346;28;20275;-64
2023/07/11 00:30:49;;;;;;;0.05;0.03;;;21.00;81.60;;;;;;5051579;28;20208;-64
2023/07/11 00:33:14;;;;;;;0.00;0.00;;;21.00;81.70;;;;;;5052901;28;20181;-64
2023/07/11 00:35:44;;;;;;;0.00;0.00;;;21.00;81.70;;;;;;5052511;28;20656;-64
2023/07/11 00:38:09;;;;;;;0.00;0.00;;;20.90;81.50;;;;;;5052896;28;20242;-64
2023/07/11 00:40:46;;;;;;;0.20;0.20;;;21.00;81.70;;;;;;5052099;28;20177;-64
2023/07/11 00:43:14;;;;;;;0.00;0.00;;;20.90;82.50;;;;;;5052420;28;20272;-64
2023/07/11 00:45:49;;;;;;;0.00;0.00;;;20.80;82.00;;;;;;5051990;28;20213;-64
2023/07/11 00:48:16;;;;;;;0.08;0.08;;;20.80;82.30;;;;;;5048074;28;20185;-64
2023/07/11 00:50:44;;;;;;;0.20;0.20;;;20.70;82.50;;;;;;5051700;28;20177;-64
2023/07/11 00:53:11;;;;;;;0.35;0.30;;;20.70;82.90;;;;;;5051760;28;20260;-64
2023/07/11 00:55:37;;;;;;;0.00;0.00;;;20.60;83.50;;;;;;5052380;28;20247;-63
2023/07/11 00:58:03;;;;;;;0.00;0.00;;;20.50;83.80;;;;;;5052173;28;20173;-64
2023/07/11 01:00:29;;;;;;;0.00;0.00;;;20.40;84.50;;;;;;5051763;28;20217;-64
2023/07/11 01:02:54;;;;;;;0.17;0.17;;;20.40;85.20;;;;;;5052054;28;20201;-63
2023/07/11 01:05:20;;;;;;;0.08;0.08;;;20.30;85.50;;;;;;5052004;28;20744;-63
2023/07/11 01:07:45;;;;;;;0.10;0.10;;;20.40;85.90;;;;;;5027358;28;20189;-63
2023/07/11 01:10:11;;;;;;;0.00;0.00;;;20.30;85.80;;;;;;5052309;28;20231;-63
2023/07/11 01:12:43;;;;;;;0.00;0.00;;;20.30;86.00;;;;;;5050276;28;20250;-64
2023/07/11 01:15:09;;;;;;;0.03;0.03;;;20.30;86.40;;;;;;5051745;28;20238;-64
2023/07/11 01:17:35;;;;;;;0.03;0.03;;;20.30;86.60;;;;;;5051701;28;20182;-64
2023/07/11 01:20:04;;;;;;;0.47;0.47;;;20.30;86.90;;;;;;5051411;28;20192;-64
2023/07/11 01:22:32;;;;;;;0.00;0.00;;;20.30;87.10;;;;;;5051288;28;20633;-64
2023/07/11 01:25:04;;;;;;;0.20;0.20;;;20.30;87.10;;;;;;5051766;28;20241;-64
2023/07/11 01:27:29;;;;;;;0.20;0.20;;;20.30;87.10;;;;;;5051538;28;20223;-63
2023/07/11 01:29:55;;;;;;;0.00;0.00;;;20.30;87.00;;;;;;5051221;28;20315;-64
2023/07/11 01:32:20;;;;;;;0.52;0.52;;;20.30;86.90;;;;;;5050048;28;20193;-64
2023/07/11 01:34:46;;;;;;;0.10;0.10;;;20.30;86.90;;;;;;5051797;28;20200;-63
2023/07/11 01:37:12;;;;;;;0.00;0.00;;;20.30;88.00;;;;;;5051815;28;20268;-63
2023/07/11 01:39:38;;;;;;;0.75;0.55;;;20.30;88.90;;;;;;5051758;28;20185;-64
2023/07/11 01:42:04;;;;;;;0.00;0.00;;;20.30;89.70;;;;;;5051515;28;20181;-63
2023/07/11 01:44:30;;;;;;;0.10;0.10;;;20.30;90.10;;;;;;5051757;28;20312;-64
2023/07/11 01:46:57;;;;;;;0.00;0.00;;;20.30;90.30;;;;;;5052398;28;20232;-63
2023/07/11 01:49:22;;;;;;;0.00;0.00;;;20.30;90.50;;;;;;5051583;28;20230;-63
2023/07/11 01:51:48;;;;;;;0.00;0.00;;;20.30;90.70;;;;;;5051218;28;20185;-64
2023/07/11 01:54:14;;;;;;;0.05;0.05;;;20.20;90.90;;;;;;5051604;28;20205;-64
2023/07/11 01:56:40;;;;;;;0.00;0.00;;;20.20;91.30;;;;;;5051479;28;20177;-65
2023/07/11 01:59:06;;;;;;;0.10;0.10;;;20.10;91.20;;;;;;5051256;28;20181;-65
2023/07/11 02:01:32;;;;;;;0.28;0.28;;;20.00;91.40;;;;;;5051185;28;20509;-65
2023/07/11 02:03:57;;;;;;;0.00;0.00;;;20.00;91.70;;;;;;5050608;28;20213;-65
2023/07/11 02:06:23;;;;;;;0.00;0.00;;;19.90;92.00;;;;;;5051061;28;20191;-65
2023/07/11 02:08:48;;;;;;;0.00;0.00;;;19.80;92.20;;;;;;5051461;28;20267;-65
2023/07/11 02:11:14;;;;;;;0.00;0.00;;;19.80;92.40;;;;;;5051656;28;20184;-65
2023/07/11 02:13:40;;;;;;;0.10;0.10;;;19.80;92.60;;;;;;5051570;28;20174;-65
2023/07/11 02:16:07;;;;;;;0.00;0.00;;;19.80;92.80;;;;;;5051595;28;20224;-65
2023/07/11 02:18:32;;;;;;;0.00;0.00;;;19.80;93.00;;;;;;5051533;28;20221;-65
2023/07/11 02:20:58;;;;;;;0.00;0.00;;;19.80;93.10;;;;;;5050454;28;20627;-65
2023/07/11 02:23:24;;;;;;;0.00;0.00;;;19.80;93.10;;;;;;5051213;28;20173;-62
2023/07/11 02:25:53;;;;;;;0.00;0.00;;;19.80;93.60;;;;;;5051326;28;20680;-62
2023/07/11 02:28:19;;;;;;;0.03;0.03;;;19.80;93.20;;;;;;5051165;28;20222;-62
2023/07/11 02:30:45;;;;;;;0.70;0.30;;;19.80;93.30;;;;;;5050685;28;20185;-62
2023/07/11 02:33:10;;;;;;;0.00;0.00;;;19.70;93.40;;;;;;5051022;28;20188;-62
2023/07/11 02:35:36;;;;;;;0.00;0.00;;;19.70;93.70;;;;;;5051360;28;20242;-62
2023/07/11 02:38:01;;;;;;;0.30;0.30;;;19.70;94.00;;;;;;5051193;28;20181;-64
2023/07/11 02:40:27;;;;;;;0.00;0.00;;;19.70;94.20;;;;;;5051360;28;20589;-65
2023/07/11 02:42:52;;;;;;;0.00;0.00;;;19.60;94.20;;;;;;5051003;28;20183;-64
2023/07/11 02:45:18;;;;;;;0.10;0.10;;;19.60;94.50;;;;;;5050815;28;20684;-64
2023/07/11 02:47:43;;;;;;;0.10;0.10;;;19.50;94.50;;;;;;5050861;28;20182;-64
2023/07/11 02:50:09;;;;;;;0.10;0.10;;;19.50;94.70;;;;;;5051109;28;20185;-64
2023/07/11 02:52:35;;;;;;;0.52;0.52;;;19.50;94.90;;;;;;5049078;28;20185;-64
2023/07/11 02:55:01;;;;;;;0.10;0.10;;;19.50;95.00;;;;;;5050622;28;20628;-64
2023/07/11 02:57:26;;;;;;;0.13;0.13;;;19.40;95.10;;;;;;5050731;28;20269;-64
2023/07/11 02:59:52;;;;;;;0.08;0.08;;;19.40;95.10;;;;;;5050752;28;20200;-64
2023/07/11 03:02:17;;;;;;;0.00;0.00;;;19.40;95.20;;;;;;5050497;28;20238;-64
2023/07/11 03:04:43;;;;;;;0.20;0.20;;;19.40;95.30;;;;;;5050399;28;20224;-64
2023/07/11 03:07:08;;;;;;;0.20;0.20;;;19.30;95.70;;;;;;5050366;28;20244;-63
2023/07/11 03:09:34;;;;;;;0.00;0.00;;;19.30;95.60;;;;;;5050749;28;20182;-63
2023/07/11 03:12:00;;;;;;;0.13;0.13;;;19.30;95.90;;;;;;5050590;28;20185;-64
2023/07/11 03:14:26;;;;;;;0.00;0.00;;;19.20;96.10;;;;;;5049270;28;20227;-62
2023/07/11 03:16:52;;;;;;;0.43;0.43;;;19.20;96.40;;;;;;5054050;28;20603;-62
2023/07/11 03:19:19;;;;;;;0.10;0.10;;;19.20;96.70;;;;;;5054588;28;20185;-62
2023/07/11 03:21:45;;;;;;;0.00;0.00;;;19.20;96.80;;;;;;5054067;28;20648;-61
2023/07/11 03:24:10;;;;;;;0.00;0.00;;;19.20;96.90;;;;;;5054564;28;20202;-61
2023/07/11 03:26:36;;;;;;;0.00;0.00;;;19.20;96.90;;;;;;5054437;28;20178;-62
2023/07/11 03:29:02;;;;;;;0.00;0.00;;;19.20;96.90;;;;;;5054283;28;20260;-62
2023/07/11 03:31:27;;;;;;;0.00;0.00;;;19.20;96.90;;;;;;5054547;28;20173;-62
2023/07/11 03:33:53;;;;;;;0.00;0.00;;;19.20;96.90;;;;;;5054337;28;20698;-62
2023/07/11 03:36:20;;;;;;;0.00;0.00;;;19.20;97.10;;;;;;5052630;28;20181;-62
2023/07/11 03:38:46;;;;;;;0.00;0.00;;;19.20;97.10;;;;;;5053409;28;20212;-61
2023/07/11 03:41:12;;;;;;;0.00;0.00;;;19.20;97.10;;;;;;5053440;28;20246;-61
2023/07/11 03:43:38;;;;;;;0.00;0.00;;;19.20;97.10;;;;;;5053317;28;20196;-62
2023/07/11 03:46:03;;;;;;;0.10;0.10;;;19.20;97.00;;;;;;5053195;28;20181;-62
2023/07/11 03:48:29;;;;;;;0.00;0.00;;;19.20;97.00;;;;;;5053769;28;20169;-63
2023/07/11 03:50:54;;;;;;;0.00;0.00;;;19.30;97.00;;;;;;5053107;28;20185;-61
2023/07/11 03:53:20;;;;;;;0.00;0.00;;;19.30;97.90;;;;;;5053331;28;20201;-62
2023/07/11 03:55:46;;;;;;;0.00;0.00;;;19.40;97.70;;;;;;5053795;28;20188;-62
2023/07/11 03:58:12;;;;;;;0.10;0.10;;;19.40;97.40;;;;;;5053785;28;20209;-62
2023/07/11 04:00:38;;;;;;;0.00;0.00;;;19.50;97.30;;;;;;5052782;28;20591;-63
2023/07/11 04:03:03;;;;;;;0.00;0.00;;;19.60;97.10;;;;;;5053457;28;20185;-62
2023/07/11 04:05:30;;;;;;;0.00;0.00;;;19.60;97.10;;;;;;5053046;28;20220;-62
2023/07/11 04:07:55;;;;;;;0.15;0.15;;;19.60;97.00;;;;;;5053355;28;20536;-63
2023/07/11 04:10:21;;;;;;;0.73;0.73;;;19.70;97.00;;;;;;5053188;28;20277;-62
2023/07/11 04:12:47;;;;;;;0.00;0.00;;;19.70;97.10;;;;;;5051865;28;20169;-62
2023/07/11 04:15:13;;;;;;;0.00;0.00;;;19.80;97.20;;;;;;5051861;28;20645;-62
2023/07/11 04:17:38;;;;;;;0.00;0.00;;;19.80;97.30;;;;;;5053219;28;20177;-62
2023/07/11 04:20:05;;;;;;;0.03;0.03;;;19.90;97.40;;;;;;5052617;28;20231;-61
2023/07/11 04:22:31;;;;;;;0.25;0.25;;;20.00;97.10;;;;;;5052631;28;20235;-62
2023/07/11 04:24:56;;;;;;;0.00;0.00;;;20.10;97.10;;;;;;5053083;28;20606;-61
2023/07/11 04:27:23;;;;;;;0.00;0.00;;;20.20;97.00;;;;;;5050347;28;20196;-61
2023/07/11 04:29:48;;;;;;;0.00;0.00;;;20.30;96.90;;;;;;5051790;28;20187;-61
2023/07/11 04:32:14;;;;;;;0.00;0.00;;;20.40;96.70;;;;;;5052493;28;20273;-62
2023/07/11 04:34:40;;;;;;;0.00;0.00;;;20.60;96.60;;;;;;5052484;28;20181;-62
2023/07/11 04:37:06;;;;;;;0.00;0.00;;;20.80;96.50;;;;;;5052274;28;20577;-62
2023/07/11 04:39:31;;;;;;;0.00;0.00;;;20.90;96.20;;;;;;5052703;28;20208;-62
2023/07/11 04:41:57;;;;;;;0.00;0.00;;;21.10;95.80;;;;;;5052755;28;20189;-62
2023/07/11 04:44:23;;;;;;;0.00;0.00;;;21.20;95.60;;;;;;5052385;28;20306;-62
2023/07/11 04:46:48;;;;;;;0.10;0.10;;;21.30;95.40;;;;;;5052606;28;20228;-62
2023/07/11 04:49:14;;;;;;;0.38;0.38;;;21.30;95.30;;;;;;5052842;28;20641;-62
2023/07/11 04:51:40;;;;;;;0.03;0.03;;;21.50;95.30;;;;;;5051985;28;20181;-62
2023/07/11 04:54:06;;;;;;;0.03;0.03;;;21.70;95.10;;;;;;5052641;28;20280;-62
2023/07/11 04:56:31;;;;;;;0.00;0.00;;;21.80;94.80;;;;;;5050985;28;20181;-62
2023/07/11 04:58:59;;;;;;;0.00;0.00;;;22.00;94.60;;;;;;5052397;28;20251;-62
2023/07/11 05:01:24;;;;;;;0.00;0.00;;;22.20;94.30;;;;;;5050055;28;20181;-62
2023/07/11 05:03:50;;;;;;;0.00;0.00;;;22.50;94.10;;;;;;5052651;28;20177;-63
2023/07/11 05:06:16;;;;;;;0.00;0.00;;;22.70;93.70;;;;;;5052455;28;20699;-62
2023/07/11 05:08:41;;;;;;;0.00;0.00;;;22.90;93.50;;;;;;5052074;28;20177;-62
2023/07/11 05:11:15;;;;;;;0.00;0.00;;;23.10;93.20;;;;;;5052725;28;20209;-62
2023/07/11 05:13:42;;;;;;;0.00;0.00;;;23.30;92.80;;;;;;5052545;28;20201;-62
2023/07/11 05:16:13;;;;;;;0.00;0.00;;;23.60;92.40;;;;;;5052455;28;20214;-62
2023/07/11 05:18:42;;;;;;;0.00;0.00;;;23.80;92.30;;;;;;5052524;28;20536;-62
2023/07/11 05:21:12;;;;;;;0.00;0.00;;;24.00;91.50;;;;;;5052199;28;20181;-62
2023/07/11 05:23:38;;;;;;;0.00;0.00;;;24.20;91.20;;;;;;5052279;28;20196;-62
2023/07/11 05:26:04;;;;;;;0.00;0.00;;;24.50;91.10;;;;;;5052137;28;20683;-62
2023/07/11 05:28:30;;;;;;;0.00;0.00;;;24.80;90.70;;;;;;5052114;28;20251;-62
2023/07/11 05:30:57;;;;;;;0.00;0.00;;;25.10;90.10;;;;;;5052261;28;20213;-62
2023/07/11 05:33:23;;;;;;;0.00;0.00;;;25.40;89.70;;;;;;5052019;28;20262;-62
2023/07/11 05:36:05;;;;;;;0.00;0.00;;;25.70;88.70;;;;;;5051944;28;20256;-62
2023/07/11 05:38:31;;;;;;;0.10;0.10;;;26.00;87.50;;;;;;5051922;28;20174;-62
2023/07/11 05:40:57;;;;;;;0.00;0.00;;;26.30;86.70;;;;;;5051662;28;20209;-62
2023/07/11 05:43:22;;;;;;;0.00;0.00;;;26.60;85.20;;;;;;5051874;28;20205;-62
2023/07/11 05:45:48;;;;;;;0.00;0.00;;;26.90;84.20;;;;;;5051862;28;20898;-62
2023/07/11 05:48:14;;;;;;;0.00;0.00;;;27.20;83.00;;;;;;5051852;28;20169;-62
2023/07/11 05:50:39;;;;;;;0.00;0.00;;;27.60;81.80;;;;;;5051829;28;20204;-63
2023/07/11 05:53:05;;;;;;;0.45;0.45;;;27.90;80.60;;;;;;5050653;28;20179;-62
2023/07/11 05:55:30;;;;;;;0.00;0.00;;;28.20;79.30;;;;;;5051411;28;20645;-62
2023/07/11 05:57:55;;;;;;;0.10;0.10;;;28.60;77.60;;;;;;5050217;28;20217;-62
2023/07/11 06:00:21;;;;;;;0.00;0.00;;;28.80;77.00;;;;;;5049749;28;20235;-62
2023/07/11 06:02:47;;;;;;;0.00;0.00;;;29.20;75.50;;;;;;5051619;28;20657;-63
2023/07/11 06:05:12;;;;;;;0.00;0.00;;;29.60;74.00;;;;;;5051414;28;20225;-63
2023/07/11 06:07:39;;;;;;;0.00;0.00;;;29.90;72.90;;;;;;5050970;28;20184;-60
2023/07/11 06:10:05;;;;;;;0.00;0.00;;;30.30;71.60;;;;;;5051480;28;20173;-60
2023/07/11 06:12:31;;;;;;;0.00;0.00;;;30.70;70.60;;;;;;5051041;28;20181;-61
2023/07/11 06:14:57;;;;;;;0.00;0.00;;;31.00;69.00;;;;;;5051500;28;20177;-61
2023/07/11 06:17:22;;;;;;;0.00;0.00;;;31.20;68.30;;;;;;5051182;28;20188;-61
2023/07/11 06:19:48;;;;;;;0.00;0.00;;;31.50;67.10;;;;;;5051481;28;20183;-61
2023/07/11 06:22:14;;;;;;;0.17;0.17;;;31.80;65.60;;;;;;5051540;28;20173;-61
2023/07/11 06:24:39;;;;;;;0.00;0.00;;;32.10;63.60;;;;;;5051593;28;20241;-61
2023/07/11 06:27:05;;;;;;;0.00;0.00;;;32.30;62.30;;;;;;5051235;28;20678;-61
2023/07/11 06:29:31;;;;;;;0.00;0.00;;;32.40;60.80;;;;;;5051405;28;20231;-60
2023/07/11 06:31:57;;;;;;;0.00;0.00;;;32.50;59.90;;;;;;5051473;28;20188;-61
2023/07/11 06:34:23;;;;;;;0.00;0.00;;;32.60;59.50;;;;;;5051312;28;20185;-60
2023/07/11 06:36:48;;;;;;;0.00;0.00;;;32.70;60.00;;;;;;5051598;28;20695;-60
2023/07/11 06:39:14;;;;;;;0.00;0.00;;;32.90;59.40;;;;;;5051414;28;20172;-60
2023/07/11 06:41:40;;;;;;;0.00;0.00;;;33.30;59.30;;;;;;5050991;28;20199;-60
2023/07/11 06:44:08;;;;;;;0.10;0.10;;;33.90;58.10;;;;;;5051190;28;20193;-61
2023/07/11 06:46:35;;;;;;;0.03;0.03;;;34.50;57.50;;;;;;5051380;28;20188;-60
2023/07/11 06:49:01;;;;;;;0.00;0.00;;;35.10;55.90;;;;;;5051351;28;20177;-61
2023/07/11 06:51:28;;;;;;;0.22;0.22;;;35.40;54.60;;;;;;5058259;28;20172;-62
2023/07/11 06:53:55;;;;;;;0.00;0.00;;;35.70;53.70;;;;;;5064012;28;20184;-62
2023/07/11 06:56:21;;;;;;;0.00;0.00;;;36.10;53.50;;;;;;5057931;28;20188;-62
2023/07/11 06:58:47;;;;;;;0.00;0.00;;;36.20;52.40;;;;;;5057844;28;20169;-62
2023/07/11 07:01:13;;;;;;;0.00;0.00;;;36.60;51.80;;;;;;5057373;28;20215;-62
2023/07/11 07:03:38;;;;;;;0.00;0.00;;;36.80;50.50;;;;;;5057958;28;20168;-62
2023/07/11 07:06:08;;;;;;;0.00;0.00;;;36.90;50.20;;;;;;5057346;28;20668;-63
2023/07/11 07:08:34;;;;;;;0.20;0.20;;;37.00;49.90;;;;;;5057817;28;20192;-62
2023/07/11 07:11:00;;;;;;;0.00;0.00;;;37.20;50.30;;;;;;5056891;28;20620;-62
2023/07/11 07:13:25;;;;;;;0.00;0.00;;;37.50;49.00;;;;;;5057662;28;20572;-63
2023/07/11 07:15:53;;;;;;;0.00;0.00;;;37.80;48.60;;;;;;5057706;28;20172;-62
2023/07/11 07:18:20;;;;;;;0.00;0.00;;;38.10;47.80;;;;;;5057729;28;20184;-62
2023/07/11 07:20:46;;;;;;;0.05;0.05;;;38.40;47.80;;;;;;5057875;28;20176;-63
2023/07/11 07:23:12;;;;;;;0.00;0.00;;;38.70;46.90;;;;;;5057882;28;20180;-63
2023/07/11 07:25:38;;;;;;;0.03;0.03;;;39.00;47.10;;;;;;5057675;28;20219;-63
2023/07/11 07:28:03;;;;;;;0.00;0.00;;;39.50;46.00;;;;;;5057277;28;20289;-63
2023/07/11 07:30:29;;;;;;;0.00;0.00;;;39.80;44.60;;;;;;5057680;28;20177;-62
2023/07/11 07:32:55;;;;;;;0.00;0.00;;;40.10;43.70;;;;;;5057614;28;20620;-63
2023/07/11 07:35:20;;;;;;;0.00;0.00;;;40.50;43.40;;;;;;5056731;28;20226;-63
2023/07/11 07:37:47;;;;;;;0.00;0.00;;;40.80;42.60;;;;;;5057052;28;20209;-63
2023/07/11 07:40:13;;;;;;;0.00;0.00;;;41.00;42.70;;;;;;5057078;28;20177;-63
2023/07/11 07:42:39;;;;;;;0.00;0.00;;;41.20;42.80;;;;;;5057655;28;20173;-63
2023/07/11 07:45:05;;;;;;;0.00;0.00;;;41.30;42.30;;;;;;5057519;28;20326;-61
2023/07/11 07:47:30;;;;;;;0.00;0.00;;;41.40;41.20;;;;;;5057316;28;20223;-63
2023/07/11 07:49:56;;;;;;;0.00;0.00;;;41.20;41.50;;;;;;5057638;28;20275;-63
2023/07/11 07:52:21;;;;;;;0.00;0.00;;;41.10;41.90;;;;;;5057263;28;20177;-63
2023/07/11 07:54:47;;;;;;;0.00;0.00;;;40.80;42.10;;;;;;5057112;28;20180;-63
2023/07/11 07:57:13;;;;;;;0.00;0.00;;;40.90;41.90;;;;;;5057211;28;20206;-63
2023/07/11 07:59:38;;;;;;;0.08;0.08;;;41.00;42.10;;;;;;5057189;28;20184;-63
2023/07/11 08:02:04;;;;;;;0.00;0.00;;;40.80;41.50;;;;;;5054716;28;20229;-63
2023/07/11 08:04:30;;;;;;;0.03;0.03;;;40.70;41.60;;;;;;5053903;28;20243;-63
2023/07/11 08:06:56;;;;;;;0.52;0.10;;;40.50;42.80;;;;;;5053336;28;20632;-63
2023/07/11 08:09:21;;;;;;;0.00;0.00;;;40.40;42.30;;;;;;5054025;28;20165;-62
2023/07/11 08:11:47;;;;;;;0.05;0.05;;;40.40;42.00;;;;;;5054263;28;20652;-63
2023/07/11 08:14:12;;;;;;;0.13;0.13;;;40.30;41.90;;;;;;5054193;28;20259;-63
2023/07/11 08:16:39;;;;;;;0.03;0.03;;;40.20;42.60;;;;;;5054034;28;20587;-64
2023/07/11 08:19:05;;;;;;;0.00;0.00;;;39.80;42.60;;;;;;5053744;28;20311;-64
2023/07/11 08:21:31;;;;;;;0.00;0.00;;;39.80;43.00;;;;;;5053686;28;20187;-64
2023/07/11 08:23:57;;;;;;;0.00;0.00;;;39.80;43.40;;;;;;5053994;28;20177;-64
2023/07/11 08:26:23;;;;;;;0.00;0.00;;;39.90;42.80;;;;;;5053157;28;20223;-64
2023/07/11 08:28:50;;;;;;;0.00;0.00;;;40.10;43.40;;;;;;5053747;28;20252;-64
2023/07/11 08:31:16;;;;;;;0.25;0.25;;;40.40;42.30;;;;;;5053093;28;20201;-63
2023/07/11 08:33:42;;;;;;;0.10;0.10;;;40.40;42.30;;;;;;5053482;28;20180;-63
2023/07/11 08:36:08;;;;;;;0.00;0.00;;;40.60;43.30;;;;;;5053629;28;20204;-63
2023/07/11 08:38:33;;;;;;;0.00;0.00;;;40.90;43.70;;;;;;5053284;28;20223;-63
2023/07/11 08:41:20;;;;;;;0.10;0.10;;;41.20;42.50;;;;;;5053440;28;20231;-63
2023/07/11 08:43:48;;;;;;;0.00;0.00;;;41.60;41.20;;;;;;5053371;28;20179;-63
2023/07/11 08:46:15;;;;;;;0.10;0.10;;;41.80;42.10;;;;;;5053458;28;20726;-64
2023/07/11 08:48:51;;;;;;;0.00;0.00;;;41.20;41.00;;;;;;5053429;28;20760;-64
2023/07/11 08:51:16;;;;;;;0.00;0.00;;;41.10;41.30;;;;;;5051815;28;20189;-63
2023/07/11 08:53:49;;;;;;;0.00;0.00;;;41.20;41.30;;;;;;5033383;28;20596;-63
2023/07/11 08:56:28;;;;;;;0.20;0.20;;;41.10;41.50;;;;;;5033393;28;20174;-63
2023/07/11 08:58:57;;;;;;;0.00;0.00;;;41.10;42.40;;;;;;5033412;28;20208;-63
2023/07/11 09:01:51;;;;;;;0.00;0.00;;;40.60;41.60;;;;;;5050150;28;20674;-63
2023/07/11 09:04:21;;;;;;;0.00;0.00;;;40.50;42.80;;;;;;5052643;28;20201;-63
2023/07/11 09:06:55;;;;;;;0.00;0.00;;;40.00;42.40;;;;;;5052656;28;20708;-64
2023/07/11 09:09:21;;;;;;;0.13;0.13;;;39.90;43.20;;;;;;5052997;28;20184;-64
2023/07/11 09:12:04;;;;;;;0.00;0.00;;;40.00;44.90;;;;;;5052987;28;20181;-63
2023/07/11 09:14:42;;;;;;;0.05;0.05;;;40.10;43.70;;;;;;5052618;28;20259;-63
2023/07/11 09:17:35;;;;;;;0.10;0.10;;;40.40;42.30;;;;;;5053031;28;20628;-64
2023/07/11 09:20:15;;;;;;;0.20;0.00;;;40.30;42.60;;;;;;5052945;28;20264;-63
2023/07/11 09:22:53;;;;;;;0.28;0.28;;;39.80;42.50;;;;;;5052479;28;20656;-63
2023/07/11 09:25:33;;;;;;;0.00;0.00;;;39.60;44.50;;;;;;5052495;28;20728;-63
2023/07/11 09:28:18;;;;;;;0.00;0.00;;;39.90;44.00;;;;;;5052229;28;20594;-63
2023/07/11 09:30:51;;;;;;;0.00;0.00;;;40.20;44.00;;;;;;5032701;28;20591;-63
2023/07/11 09:33:32;;;;;;;0.00;0.00;;;40.10;43.30;;;;;;5040450;28;20651;-63
2023/07/11 09:36:00;;;;;;;0.10;0.10;;;40.30;43.80;;;;;;5052725;28;20233;-63
2023/07/11 09:38:33;;;;;;;0.00;0.00;;;40.50;43.00;;;;;;5052411;28;20169;-63
2023/07/11 09:41:03;;;;;;;0.00;0.00;;;40.70;43.30;;;;;;5052567;28;20176;-63
2023/07/11 09:43:29;;;;;;;0.10;0.10;;;40.70;43.20;;;;;;5052132;28;20177;-64
2023/07/11 09:45:54;;;;;;;0.00;0.00;;;40.80;43.10;;;;;;5052280;28;20310;-63
2023/07/11 09:48:27;;;;;;;0.00;0.00;;;41.00;42.90;;;;;;5052090;28;20252;-63
2023/07/11 09:51:16;;;;;;;0.00;0.00;;;40.70;42.40;;;;;;5052120;28;20189;-64
2023/07/11 09:53:44;;;;;;;0.00;0.00;;;40.00;43.60;;;;;;5032175;28;20182;-64
2023/07/11 09:56:15;;;;;;;0.13;0.13;;;39.70;43.90;;;;;;5049093;28;20540;-64
2023/07/11 09:58:57;;;;;;;0.10;0.00;;;39.70;44.30;;;;;;5051571;28;20188;-61
2023/07/11 10:01:26;;;;;;;0.00;0.00;;;39.30;43.60;;;;;;5051847;28;20172;-61
2023/07/11 10:03:57;;;;;;;0.00;0.00;;;39.60;44.00;;;;;;5051649;28;20623;-61
2023/07/11 10:06:38;;;;;;;0.00;0.00;;;40.00;44.00;;;;;;5052002;28;20207;-61
2023/07/11 10:09:24;;;;;;;0.00;0.00;;;40.30;43.40;;;;;;5051890;28;20642;-61
2023/07/11 10:11:57;;;;;;;0.00;0.00;;;40.30;43.10;;;;;;5051266;28;20181;-61
2023/07/11 10:14:45;;;;;;;0.00;0.00;;;40.20;42.70;;;;;;5051796;28;20173;-61
2023/07/11 10:17:21;;;;;;;0.00;0.00;;;40.40;43.40;;;;;;5051498;28;20180;-61
2023/07/11 10:19:48;;;;;;;0.00;0.00;;;40.70;42.70;;;;;;5051830;28;20176;-61
2023/07/11 10:22:20;;;;;;;0.00;0.00;;;40.90;42.80;;;;;;5051574;28;20181;-62
2023/07/11 10:24:46;;;;;;;0.52;0.10;;;41.00;42.20;;;;;;5051321;28;20223;-61
2023/07/11 10:27:14;;;;;;;0.15;0.15;;;40.50;41.90;;;;;;5051860;28;20243;-62
2023/07/11 10:29:44;;;;;;;0.00;0.00;;;40.10;42.50;;;;;;5051680;28;20207;-61
2023/07/11 10:32:20;;;;;;;0.00;0.00;;;39.60;43.20;;;;;;5051526;28;20742;-61
2023/07/11 10:34:51;;;;;;;0.00;0.00;;;39.20;43.80;;;;;;5031569;28;20659;-61
2023/07/11 10:37:32;;;;;;;0.00;0.00;;;39.20;44.40;;;;;;5043018;28;20208;-61
2023/07/11 10:40:09;;;;;;;0.00;0.00;;;39.50;43.70;;;;;;5051464;28;20184;-60
2023/07/11 10:42:44;;;;;;;0.00;0.00;;;39.40;43.40;;;;;;5051152;28;20337;-59
2023/07/11 10:45:19;;;;;;;0.00;0.00;;;39.30;44.30;;;;;;5056417;28;20211;-59
2023/07/11 10:47:54;;;;;;;0.52;0.22;;;38.90;44.30;;;;;;5071493;28;20176;-60
2023/07/11 10:50:31;;;;;;;0.05;0.05;;;39.00;44.30;;;;;;5071413;28;20262;-60
2023/07/11 10:53:03;;;;;;;0.10;0.10;;;39.00;45.20;;;;;;5055629;28;20179;-60
2023/07/11 10:55:37;;;;;;;0.13;0.13;;;39.10;45.00;;;;;;5051260;28;20180;-60
2023/07/11 10:58:05;;;;;;;0.05;0.05;;;38.70;43.60;;;;;;5051429;28;20181;-60
2023/07/11 11:00:48;;;;;;;0.00;0.00;;;38.50;44.60;;;;;;5051116;28;20184;-60
2023/07/11 11:03:34;;;;;;;0.00;0.00;;;38.50;44.30;;;;;;5051198;28;20263;-60
2023/07/11 11:06:31;;;;;;;0.00;0.00;;;38.50;45.00;;;;;;5065535;28;20215;-61
2023/07/11 11:09:11;;;;;;;0.00;0.00;;;38.50;45.10;;;;;;5068852;28;20233;-61
2023/07/11 11:11:55;;;;;;;0.00;0.00;;;38.40;44.90;;;;;;5050885;28;20185;-61
2023/07/11 11:14:30;;;;;;;0.00;0.00;;;38.40;45.00;;;;;;5051068;28;20176;-61
2023/07/11 11:17:20;;;;;;;0.03;0.03;;;38.30;45.10;;;;;;5051069;28;20192;-61
2023/07/11 11:19:53;;;;;;;0.00;0.00;;;38.40;44.50;;;;;;5051020;28;20185;-61
2023/07/11 11:22:35;;;;;;;0.10;0.10;;;38.30;44.90;;;;;;5050146;28;20185;-61
2023/07/11 11:25:08;;;;;;;0.00;0.00;;;38.30;45.20;;;;;;5050612;28;20197;-61
2023/07/11 11:27:48;;;;;;;0.00;0.00;;;38.60;45.00;;;;;;5050615;28;20271;-61
2023/07/11 11:30:18;;;;;;;0.00;0.00;;;38.90;44.50;;;;;;5050824;28;20185;-61
2023/07/11 11:33:00;;;;;;;0.00;0.00;;;39.00;44.10;;;;;;5050824;28;20181;-61
2023/07/11 11:35:45;;;;;;;0.00;0.00;;;38.90;45.10;;;;;;5050831;28;20169;-61
2023/07/11 11:38:19;;;;;;;0.00;0.00;;;38.70;44.20;;;;;;5054369;28;20203;-61
2023/07/11 11:40:49;;;;;;;0.00;0.00;;;38.60;44.70;;;;;;5054704;28;20226;-61
2023/07/11 11:43:15;;;;;;;0.00;0.00;;;38.60;44.50;;;;;;5054319;28;20231;-60
2023/07/11 11:45:42;;;;;;;0.00;0.00;;;38.60;44.90;;;;;;5052449;28;20220;-61
2023/07/11 11:48:20;;;;;;;0.00;0.00;;;38.90;44.50;;;;;;5054608;28;20172;-61
2023/07/11 11:50:47;;;;;;;0.10;0.10;;;39.10;45.30;;;;;;5054415;28;20238;-62
2023/07/11 11:53:31;;;;;;;0.00;0.00;;;39.30;44.40;;;;;;5054340;28;20192;-62
2023/07/11 11:56:02;;;;;;;0.20;0.20;;;39.20;44.30;;;;;;5054531;28;20219;-61
2023/07/11 11:58:30;;;;;;;0.00;0.00;;;39.10;45.10;;;;;;5054773;28;20267;-62
2023/07/11 12:00:57;;;;;;;0.00;0.00;;;38.90;45.20;;;;;;5054278;28;20655;-62
2023/07/11 12:03:44;;;;;;;0.00;0.00;;;39.00;45.10;;;;;;5054087;28;20185;-62
2023/07/11 12:06:36;;;;;;;0.10;0.10;;;39.10;44.80;;;;;;5055311;28;20636;-61
2023/07/11 12:09:16;;;;;;;0.00;0.00;;;39.00;45.10;;;;;;5054388;28;20246;-62
2023/07/11 12:12:02;;;;;;;0.00;0.00;;;39.30;45.50;;;;;;5054115;28;20184;-62
2023/07/11 12:14:38;;;;;;;0.00;0.00;;;39.60;45.30;;;;;;5054005;28;20201;-61
2023/07/11 12:17:04;;;;;;;0.15;0.15;;;39.50;45.20;;;;;;5067692;28;20192;-62
2023/07/11 12:19:41;;;;;;;0.05;0.05;;;39.50;45.90;;;;;;5073811;28;20692;-62
2023/07/11 12:22:07;;;;;;;0.00;0.00;;;39.60;45.50;;;;;;5074368;28;20237;-61
2023/07/11 12:24:33;;;;;;;0.00;0.00;;;39.40;45.20;;;;;;5061628;28;20196;-62
2023/07/11 12:27:09;;;;;;;0.00;0.00;;;39.00;45.20;;;;;;5053979;28;20177;-61
2023/07/11 12:29:48;;;;;;;0.10;0.10;;;38.90;45.70;;;;;;5053497;28;20211;-61
2023/07/11 12:32:35;;;;;;;0.00;0.00;;;39.00;46.70;;;;;;5053175;28;20259;-62
2023/07/11 12:35:03;;;;;;;0.00;0.00;;;39.30;46.80;;;;;;5047251;28;20181;-61
2023/07/11 12:37:38;;;;;;;0.30;0.30;;;39.20;45.70;;;;;;5053544;28;20180;-61
2023/07/11 12:40:20;;;;;;;0.00;0.00;;;39.10;45.70;;;;;;5053613;28;20188;-62
2023/07/11 12:42:57;;;;;;;0.00;0.00;;;39.10;46.30;;;;;;5053404;28;20177;-62
2023/07/11 12:45:25;;;;;;;0.00;0.00;;;39.00;45.80;;;;;;5052957;28;20223;-61
2023/07/11 12:48:15;;;;;;;0.00;0.00;;;38.80;45.90;;;;;;5052377;28;20242;-61
2023/07/11 12:50:57;;;;;;;0.10;0.10;;;38.60;46.90;;;;;;5053477;28;20188;-63
2023/07/11 12:53:23;;;;;;;0.10;0.10;;;38.40;47.60;;;;;;5052942;28;20511;-62
2023/07/11 12:55:51;;;;;;;0.00;0.00;;;38.30;47.30;;;;;;5052826;28;20180;-62
2023/07/11 12:58:27;;;;;;;0.10;0.10;;;38.40;47.40;;;;;;5053294;28;20184;-62